createdAt,value
2019-04-21T00:00:44.694Z,18.87
2019-04-21T00:03:25.634Z,18.55
2019-04-21T00:06:09.477Z,18.65
2019-04-21T00:08:50.884Z,18.95
2019-04-21T00:11:30.859Z,19.42
2019-04-21T00:13:52.605Z,19.05
2019-04-21T00:16:29.066Z,19.70
2019-04-21T00:19:19.641Z,19.02
2019-04-21T00:21:58.115Z,18.62
2019-04-21T00:24:41.365Z,20.77
2019-04-21T00:27:22.955Z,19.82
2019-04-21T00:29:58.148Z,21.33
2019-04-21T00:32:28.160Z,21.42
2019-04-21T00:35:00.383Z,20.27
2019-04-21T00:37:48.070Z,21.80
2019-04-21T00:40:24.005Z,21.37
2019-04-21T00:43:01.327Z,21.23
2019-04-21T00:45:31.367Z,19.92
2019-04-21T00:48:16.620Z,21.17
2019-04-21T00:51:05.471Z,20.57
2019-04-21T00:53:37.130Z,20.50
2019-04-21T00:56:11.910Z,21.20
2019-04-21T00:58:47.755Z,20.20
2019-04-21T01:01:14.950Z,20.20
2019-04-21T01:03:58.114Z,19.92
2019-04-21T01:06:35.183Z,19.60
2019-04-21T01:09:06.375Z,20.02
2019-04-21T01:11:44.466Z,19.70
2019-04-21T01:14:29.804Z,19.57
2019-04-21T01:16:57.727Z,19.65
2019-04-21T01:19:25.133Z,19.87
2019-04-21T01:21:47.490Z,19.65
2019-04-21T01:24:28.909Z,19.73
2019-04-21T01:27:06.452Z,20.02
2019-04-21T01:29:55.094Z,20.00
2019-04-21T01:32:29.566Z,19.87
2019-04-21T01:35:08.577Z,20.05
2019-04-21T01:37:52.437Z,20.15
2019-04-21T01:40:22.878Z,21.27
2019-04-21T01:43:01.134Z,20.52
2019-04-21T01:45:26.726Z,22.40
2019-04-21T01:48:03.563Z,21.82
2019-04-21T01:50:41.196Z,22.60
2019-04-21T01:53:30.683Z,22.48
2019-04-21T01:58:38.050Z,23.00
2019-04-21T02:01:19.355Z,22.73
2019-04-21T02:03:55.874Z,23.62
2019-04-21T02:06:33.457Z,22.75
2019-04-21T02:09:10.120Z,22.30
2019-04-21T02:11:52.050Z,23.25
2019-04-21T02:14:31.772Z,24.15
2019-04-21T02:16:59.595Z,25.00
2019-04-21T02:19:31.238Z,23.80
2019-04-21T02:22:04.911Z,23.35
2019-04-21T02:25:08.281Z,24.37
2019-04-21T02:27:26.514Z,24.40
2019-04-21T02:30:00.052Z,24.57
2019-04-21T02:32:53.815Z,24.27
2019-04-21T02:35:30.295Z,23.92
2019-04-21T02:38:03.786Z,23.87
2019-04-21T02:40:38.935Z,23.70
2019-04-21T02:43:11.341Z,24.27
2019-04-21T02:45:53.698Z,23.87
2019-04-21T02:50:57.713Z,24.43
2019-04-21T02:54:07.376Z,23.35
2019-04-21T02:56:17.995Z,22.67
2019-04-21T03:01:50.332Z,23.65
2019-04-21T03:04:43.096Z,23.32
2019-04-21T03:07:21.610Z,22.85
2019-04-21T03:09:59.755Z,23.83
2019-04-21T03:12:35.533Z,22.95
2019-04-21T03:15:25.522Z,23.73
2019-04-21T03:18:38.045Z,23.62
2019-04-21T03:23:07.697Z,24.05
2019-04-21T03:28:14.173Z,23.40
2019-04-21T03:41:21.457Z,22.98
2019-04-21T03:43:50.160Z,23.47
2019-04-21T03:49:11.857Z,22.70
2019-04-21T03:54:15.530Z,22.52
2019-04-21T03:59:25.013Z,22.95
2019-04-21T04:02:47.172Z,23.45
2019-04-21T04:05:20.006Z,22.62
2019-04-21T04:08:08.735Z,22.73
2019-04-21T04:10:34.840Z,22.95
2019-04-21T04:13:14.121Z,22.32
2019-04-21T04:18:44.421Z,21.90
2019-04-21T04:21:05.794Z,22.13
2019-04-21T04:24:02.399Z,21.77
2019-04-21T04:26:19.371Z,22.40
2019-04-21T04:31:35.486Z,22.70
2019-04-21T04:34:04.768Z,21.12
2019-04-21T04:39:43.154Z,21.97
2019-04-21T04:42:35.054Z,21.90
2019-04-21T04:47:37.110Z,21.07
2019-04-21T04:50:09.930Z,21.80
2019-04-21T04:52:48.982Z,21.48
2019-04-21T04:55:26.189Z,22.75
2019-04-21T05:00:43.422Z,29.82
2019-04-21T05:06:46.170Z,29.07
2019-04-21T05:09:21.558Z,29.32
2019-04-21T05:11:48.752Z,29.82
2019-04-21T05:14:21.803Z,29.77
2019-04-21T05:17:02.306Z,29.75
2019-04-21T05:19:38.160Z,28.20
2019-04-21T05:22:11.054Z,27.27
2019-04-21T05:24:36.107Z,27.35
2019-04-21T05:27:29.415Z,27.07
2019-04-21T05:30:17.375Z,26.17
2019-04-21T05:33:05.606Z,25.75
2019-04-21T05:36:04.106Z,26.65
2019-04-21T05:38:53.469Z,26.52
2019-04-21T05:41:20.657Z,26.02
2019-04-21T05:44:12.827Z,25.35
2019-04-21T05:46:49.508Z,26.10
2019-04-21T05:49:42.084Z,26.73
2019-04-21T05:52:08.101Z,25.48
2019-04-21T05:54:57.437Z,25.45
2019-04-21T05:57:31.846Z,26.12
2019-04-21T06:00:08.854Z,25.88
2019-04-21T06:02:43.788Z,25.72
2019-04-21T06:08:03.758Z,26.77
2019-04-21T06:10:42.273Z,27.70
2019-04-21T06:13:24.417Z,26.80
2019-04-21T06:18:35.355Z,27.15
2019-04-21T06:21:07.206Z,27.02
2019-04-21T06:23:36.779Z,25.82
2019-04-21T06:26:27.996Z,24.85
2019-04-21T06:28:50.404Z,25.40
2019-04-21T06:31:57.398Z,23.55
2019-04-21T06:34:06.757Z,23.67
2019-04-21T06:36:52.702Z,23.10
2019-04-21T06:39:24.154Z,23.05
2019-04-21T06:41:53.110Z,22.73
2019-04-21T06:44:33.064Z,22.60
2019-04-21T06:47:23.230Z,21.57
2019-04-21T06:49:44.392Z,21.75
2019-04-21T06:52:34.791Z,22.17
2019-04-21T06:55:03.145Z,21.20
2019-04-21T06:57:34.775Z,21.40
2019-04-21T07:00:07.407Z,21.10
2019-04-21T07:03:08.349Z,20.32
2019-04-21T07:05:26.336Z,23.73
2019-04-21T07:08:14.921Z,23.70
2019-04-21T07:10:31.819Z,23.10
2019-04-21T07:13:07.933Z,21.97
2019-04-21T07:16:02.838Z,22.42
2019-04-21T07:18:31.431Z,22.15
2019-04-21T07:21:00.054Z,21.90
2019-04-21T07:23:39.971Z,21.27
2019-04-21T07:26:14.763Z,21.23
2019-04-21T07:28:49.882Z,20.30
2019-04-21T07:31:24.962Z,20.60
2019-04-21T07:34:01.577Z,20.17
2019-04-21T07:39:06.219Z,19.15
2019-04-21T07:41:44.050Z,19.10
2019-04-21T07:44:17.027Z,19.60
2019-04-21T07:46:50.519Z,18.30
2019-04-21T07:49:57.371Z,18.25
2019-04-21T07:52:53.207Z,18.50
2019-04-21T07:57:57.196Z,17.10
2019-04-21T08:00:45.083Z,17.30
2019-04-21T08:03:14.137Z,16.95
2019-04-21T08:05:53.723Z,16.82
2019-04-21T08:08:26.566Z,16.02
2019-04-21T08:11:03.710Z,16.45
2019-04-21T08:13:42.975Z,16.55
2019-04-21T08:16:17.253Z,15.90
2019-04-21T08:18:52.421Z,16.27
2019-04-21T08:21:28.291Z,15.90
2019-04-21T08:23:59.682Z,15.28
2019-04-21T08:26:45.200Z,16.17
2019-04-21T08:29:25.839Z,15.70
2019-04-21T08:32:08.084Z,15.00
2019-04-21T08:37:08.902Z,14.83
2019-04-21T08:39:51.798Z,14.55
2019-04-21T08:42:21.608Z,14.33
2019-04-21T08:44:52.445Z,14.70
2019-04-21T08:47:25.650Z,14.75
2019-04-21T08:50:02.157Z,14.07
2019-04-21T08:52:44.479Z,13.48
2019-04-21T08:55:25.362Z,14.87
2019-04-21T08:58:25.668Z,14.43
2019-04-21T09:01:01.801Z,13.55
2019-04-21T09:03:51.956Z,14.45
2019-04-21T09:06:50.045Z,12.80
2019-04-21T09:09:03.660Z,13.35
2019-04-21T09:11:40.440Z,13.40
2019-04-21T09:14:20.766Z,13.62
2019-04-21T09:16:52.837Z,13.45
2019-04-21T09:19:38.626Z,13.35
2019-04-21T09:22:05.745Z,12.95
2019-04-21T09:24:42.708Z,12.33
2019-04-21T09:27:15.295Z,13.03
2019-04-21T09:29:40.623Z,12.03
2019-04-21T09:32:16.621Z,13.08
2019-04-21T09:34:48.934Z,12.20
2019-04-21T09:37:32.985Z,13.00
2019-04-21T09:40:00.908Z,12.55
2019-04-21T09:42:44.365Z,12.55
2019-04-21T09:45:14.291Z,12.47
2019-04-21T09:47:59.064Z,12.45
2019-04-21T09:50:24.646Z,11.85
2019-04-21T09:53:10.457Z,12.63
2019-04-21T09:55:45.246Z,12.00
2019-04-21T09:58:23.219Z,11.75
2019-04-21T10:01:01.478Z,12.20
2019-04-21T10:03:24.227Z,12.33
2019-04-21T10:05:58.759Z,12.73
2019-04-21T10:08:34.181Z,13.38
2019-04-21T10:11:09.865Z,12.53
2019-04-21T10:13:44.330Z,12.90
2019-04-21T10:16:38.272Z,13.10
2019-04-21T10:19:13.327Z,13.88
2019-04-21T10:21:50.148Z,13.48
2019-04-21T10:24:24.569Z,13.28
2019-04-21T10:26:59.062Z,13.30
2019-04-21T10:29:35.789Z,13.60
2019-04-21T10:32:09.360Z,13.13
2019-04-21T10:34:43.710Z,12.90
2019-04-21T10:37:18.800Z,12.47
2019-04-21T10:39:53.859Z,13.08
2019-04-21T10:42:29.108Z,12.13
2019-04-21T10:45:03.605Z,13.13
2019-04-21T10:47:38.859Z,12.73
2019-04-21T10:50:13.488Z,12.53
2019-04-21T10:53:09.292Z,12.80
2019-04-21T10:55:56.690Z,12.82
2019-04-21T10:58:38.382Z,12.47
2019-04-21T11:01:16.675Z,13.72
2019-04-21T11:04:29.019Z,13.70
2019-04-21T11:07:06.673Z,12.88
2019-04-21T11:09:34.155Z,13.50
2019-04-21T11:12:08.540Z,13.80
2019-04-21T11:14:43.092Z,11.78
2019-04-21T11:17:18.217Z,11.80
2019-04-21T11:19:54.861Z,12.30
2019-04-21T11:22:31.026Z,11.65
2019-04-21T11:25:07.004Z,11.18
2019-04-21T11:27:42.923Z,10.95
2019-04-21T11:30:17.807Z,10.35
2019-04-21T11:32:53.116Z,10.50
2019-04-21T11:35:27.780Z,10.85
2019-04-21T11:38:14.493Z,10.68
2019-04-21T11:40:45.541Z,10.90
2019-04-21T11:43:19.978Z,10.48
2019-04-21T11:45:54.754Z,11.63
2019-04-21T11:48:30.532Z,9.70
2019-04-21T11:51:04.925Z,10.53
2019-04-21T11:53:39.195Z,10.08
2019-04-21T11:56:14.625Z,10.50
2019-04-21T11:58:49.955Z,9.88
2019-04-21T12:01:25.685Z,10.08
2019-04-21T12:04:00.023Z,9.70
2019-04-21T12:06:40.935Z,9.78
2019-04-21T12:09:11.771Z,9.93
2019-04-21T12:11:47.412Z,9.95
2019-04-21T12:14:21.798Z,9.13
2019-04-21T12:16:57.186Z,9.43
2019-04-21T12:19:32.589Z,8.90
2019-04-21T12:22:17.560Z,9.30
2019-04-21T12:24:44.897Z,9.25
2019-04-21T12:27:20.355Z,9.30
2019-04-21T12:29:55.512Z,9.05
2019-04-21T12:32:40.182Z,9.30
2019-04-21T12:35:15.756Z,9.15
2019-04-21T12:37:51.073Z,9.20
2019-04-21T12:40:26.411Z,9.00
2019-04-21T12:43:00.944Z,9.50
2019-04-21T12:45:35.904Z,9.15
2019-04-21T12:48:10.557Z,8.90
2019-04-21T12:50:45.797Z,8.75
2019-04-21T12:53:21.435Z,8.68
2019-04-21T12:55:55.797Z,9.15
2019-04-21T12:58:31.127Z,8.83
2019-04-21T13:01:05.366Z,8.85
2019-04-21T13:03:39.833Z,8.58
2019-04-21T13:06:14.161Z,9.03
2019-04-21T13:08:56.863Z,8.90
2019-04-21T13:11:25.514Z,9.03
2019-04-21T13:13:59.888Z,9.48
2019-04-21T13:16:35.557Z,9.55
2019-04-21T13:19:09.608Z,9.63
2019-04-21T13:21:43.776Z,9.43
2019-04-21T13:24:17.918Z,9.10
2019-04-21T13:26:58.097Z,9.20
2019-04-21T13:29:30.184Z,9.60
2019-04-21T13:32:05.491Z,9.15
2019-04-21T13:34:42.095Z,9.23
2019-04-21T13:37:17.332Z,9.75
2019-04-21T13:40:34.157Z,10.35
2019-04-21T13:42:58.590Z,10.38
2019-04-21T13:45:32.167Z,11.10
2019-04-21T13:48:06.622Z,12.37
2019-04-21T13:50:41.433Z,13.10
2019-04-21T13:53:16.639Z,13.90
2019-04-21T13:55:52.618Z,13.20
2019-04-21T13:58:28.168Z,13.60
2019-04-21T14:01:03.541Z,14.23
2019-04-21T14:03:37.913Z,15.00
2019-04-21T14:06:12.166Z,15.65
2019-04-21T14:08:54.720Z,14.18
2019-04-21T14:11:29.263Z,15.20
2019-04-21T14:14:03.252Z,14.18
2019-04-21T14:16:38.182Z,14.83
2019-04-21T14:19:13.139Z,14.35
2019-04-21T14:21:49.880Z,14.93
2019-04-21T14:24:22.968Z,13.90
2019-04-21T14:26:58.324Z,15.53
2019-04-21T14:29:33.472Z,14.78
2019-04-21T14:32:08.374Z,14.45
2019-04-21T14:34:44.095Z,14.53
2019-04-21T14:37:20.459Z,15.20
2019-04-21T14:40:01.877Z,15.20
2019-04-21T14:42:32.012Z,15.00
2019-04-21T14:45:07.329Z,15.50
2019-04-21T14:48:04.995Z,15.25
2019-04-21T14:51:11.218Z,16.15
2019-04-21T14:54:02.010Z,16.70
2019-04-21T14:56:37.481Z,16.15
2019-04-21T14:59:12.948Z,16.25
2019-04-21T15:01:47.208Z,16.17
2019-04-21T15:04:22.379Z,17.20
2019-04-21T15:06:57.400Z,16.30
2019-04-21T15:09:32.309Z,17.17
2019-04-21T15:12:08.005Z,16.93
2019-04-21T15:14:42.553Z,16.45
2019-04-21T15:17:19.530Z,17.57
2019-04-21T15:20:00.721Z,18.05
2019-04-21T15:22:30.339Z,17.90
2019-04-21T15:25:05.860Z,18.17
2019-04-21T15:27:41.137Z,17.62
2019-04-21T15:30:16.465Z,18.45
2019-04-21T15:32:50.918Z,18.15
2019-04-21T15:35:26.962Z,18.00
2019-04-21T15:38:02.069Z,17.55
2019-04-21T15:40:44.636Z,17.82
2019-04-21T15:43:12.645Z,18.10
2019-04-21T15:45:46.964Z,17.62
2019-04-21T15:48:22.326Z,18.23
2019-04-21T15:50:58.871Z,18.10
2019-04-21T15:53:34.200Z,18.07
2019-04-21T15:56:28.872Z,18.00
2019-04-21T15:59:30.587Z,18.30
2019-04-21T16:02:22.361Z,18.15
2019-04-21T16:04:56.831Z,18.63
2019-04-21T16:07:31.892Z,17.67
2019-04-21T16:10:09.887Z,18.85
2019-04-21T16:12:43.638Z,17.80
2019-04-21T16:15:18.850Z,18.70
2019-04-21T16:17:53.358Z,18.15
2019-04-21T16:20:28.171Z,19.15
2019-04-21T16:23:02.428Z,19.17
2019-04-21T16:25:36.997Z,18.30
2019-04-21T16:28:11.483Z,18.70
2019-04-21T16:30:46.580Z,18.73
2019-04-21T16:33:21.090Z,18.37
2019-04-21T16:35:56.008Z,18.57
2019-04-21T16:38:31.424Z,18.82
2019-04-21T16:41:09.197Z,19.35
2019-04-21T16:43:43.013Z,18.85
2019-04-21T16:46:17.877Z,18.70
2019-04-21T16:48:53.478Z,19.80
2019-04-21T16:51:28.471Z,19.95
2019-04-21T16:54:08.330Z,20.43
2019-04-21T16:56:52.118Z,20.25
2019-04-21T16:59:32.566Z,21.57
2019-04-21T17:02:07.115Z,23.38
2019-04-21T17:04:42.511Z,23.57
2019-04-21T17:07:17.929Z,25.37
2019-04-21T17:09:52.718Z,24.90
2019-04-21T17:12:28.751Z,24.35
2019-04-21T17:15:18.941Z,23.77
2019-04-21T17:18:00.214Z,22.50
2019-04-21T17:20:29.944Z,23.67
2019-04-21T17:22:51.506Z,24.98
2019-04-21T17:25:27.833Z,24.00
2019-04-21T17:28:01.944Z,24.30
2019-04-21T17:30:36.701Z,24.25
2019-04-21T17:33:16.041Z,23.65
2019-04-21T17:35:47.327Z,22.37
2019-04-21T17:38:21.885Z,23.12
2019-04-21T17:41:11.052Z,24.30
2019-04-21T17:43:32.265Z,24.67
2019-04-21T17:46:06.916Z,22.80
2019-04-21T17:48:42.871Z,22.82
2019-04-21T17:51:25.822Z,23.80
2019-04-21T17:54:13.652Z,22.70
2019-04-21T17:57:05.550Z,22.87
2019-04-21T17:59:50.881Z,23.22
2019-04-21T18:02:11.040Z,23.07
2019-04-21T18:04:49.261Z,22.90
2019-04-21T18:07:31.543Z,22.37
2019-04-21T18:10:15.939Z,21.73
2019-04-21T18:12:36.160Z,22.42
2019-04-21T18:15:17.583Z,20.70
2019-04-21T18:17:34.551Z,20.80
2019-04-21T18:20:10.031Z,21.07
2019-04-21T18:23:15.356Z,20.82
2019-04-21T18:25:53.949Z,20.70
2019-04-21T18:28:20.775Z,21.02
2019-04-21T18:31:16.425Z,20.27
2019-04-21T18:34:13.876Z,21.97
2019-04-21T18:36:52.142Z,21.90
2019-04-21T18:39:53.619Z,21.65
2019-04-21T18:42:42.134Z,22.32
2019-04-21T18:45:48.027Z,23.02
2019-04-21T18:48:41.208Z,23.62
2019-04-21T18:51:32.722Z,22.67
2019-04-21T18:54:31.349Z,23.05
2019-04-21T18:56:53.618Z,24.02
2019-04-21T18:59:27.069Z,23.70
2019-04-21T19:02:02.447Z,24.90
2019-04-21T19:04:35.190Z,23.22
2019-04-21T19:07:19.863Z,23.12
2019-04-21T19:10:20.510Z,22.90
2019-04-21T19:13:05.986Z,22.55
2019-04-21T19:15:17.847Z,22.77
2019-04-21T19:18:16.999Z,22.22
2019-04-21T19:20:31.105Z,22.40
2019-04-21T19:23:00.310Z,20.88
2019-04-21T19:25:45.130Z,22.13
2019-04-21T19:28:16.282Z,21.35
2019-04-21T19:30:57.507Z,22.60
2019-04-21T19:33:27.026Z,22.40
2019-04-21T19:35:47.486Z,20.92
2019-04-21T19:38:31.719Z,22.00
2019-04-21T19:41:15.608Z,22.30
2019-04-21T19:43:53.670Z,20.57
2019-04-21T19:46:30.649Z,21.25
2019-04-21T19:49:13.470Z,21.57
2019-04-21T19:51:37.772Z,21.40
2019-04-21T19:54:12.627Z,21.52
2019-04-21T19:56:38.498Z,21.40
2019-04-21T19:59:18.572Z,20.97
2019-04-21T20:01:49.958Z,21.48
2019-04-21T20:04:34.387Z,20.70
2019-04-21T20:07:17.396Z,21.12
2019-04-21T20:09:55.899Z,20.48
2019-04-21T20:12:36.585Z,23.38
2019-04-21T20:15:23.248Z,22.62
2019-04-21T20:17:42.441Z,22.98
2019-04-21T20:20:03.746Z,21.42
2019-04-21T20:22:42.278Z,22.40
2019-04-21T20:25:19.061Z,22.27
2019-04-21T20:27:59.069Z,20.57
2019-04-21T20:30:42.474Z,21.30
2019-04-21T20:33:41.629Z,21.62
2019-04-21T20:38:28.870Z,21.33
2019-04-21T20:40:59.794Z,21.00
2019-04-21T20:43:47.156Z,20.82
2019-04-21T20:46:15.619Z,20.23
2019-04-21T20:48:52.320Z,20.40
2019-04-21T20:51:36.243Z,20.17
2019-04-21T20:54:07.449Z,20.88
2019-04-21T20:56:42.020Z,19.98
2019-04-21T20:59:19.418Z,19.17
2019-04-21T21:01:57.911Z,19.17
2019-04-21T21:04:27.987Z,19.27
2019-04-21T21:07:25.556Z,19.67
2019-04-21T21:09:54.506Z,19.40
2019-04-21T21:12:34.314Z,19.52
2019-04-21T21:14:54.038Z,19.48
2019-04-21T21:20:16.362Z,19.25
2019-04-21T21:22:43.927Z,18.92
2019-04-21T21:25:36.626Z,19.20
2019-04-21T21:27:55.256Z,19.23
2019-04-21T21:30:34.809Z,19.30
2019-04-21T21:33:17.149Z,20.55
2019-04-21T21:35:41.507Z,19.45
2019-04-21T21:38:28.219Z,19.48
2019-04-21T21:40:57.370Z,18.82
2019-04-21T21:43:24.798Z,19.82
2019-04-21T21:46:02.650Z,18.82
2019-04-21T21:48:48.945Z,18.57
2019-04-21T21:51:19.188Z,18.48
2019-04-21T21:53:45.969Z,18.52
2019-04-21T21:56:20.607Z,18.37
2019-04-21T21:58:56.965Z,18.17
2019-04-21T22:01:38.009Z,19.85
2019-04-21T22:04:13.295Z,18.77
2019-04-21T22:06:50.692Z,18.48
2019-04-21T22:09:19.868Z,17.73
2019-04-21T22:11:57.841Z,18.48
2019-04-21T22:14:37.189Z,18.57
2019-04-21T22:17:21.417Z,17.90
2019-04-21T22:20:05.320Z,18.23
2019-04-21T22:22:32.469Z,17.65
2019-04-21T22:25:04.539Z,17.90
2019-04-21T22:27:30.798Z,17.40
2019-04-21T22:30:09.002Z,18.02
2019-04-21T22:32:50.276Z,17.70
2019-04-21T22:35:27.307Z,18.50
2019-04-21T22:38:10.192Z,18.23
2019-04-21T22:40:46.616Z,18.65
2019-04-21T22:43:19.814Z,17.67
2019-04-21T22:45:45.229Z,18.52
2019-04-21T22:48:22.783Z,17.30
2019-04-21T22:50:56.207Z,18.35
2019-04-21T22:53:37.440Z,17.45
2019-04-21T22:56:14.939Z,18.35
2019-04-21T22:58:44.455Z,17.35
2019-04-21T23:01:26.751Z,17.95
2019-04-21T23:03:59.242Z,17.73
2019-04-21T23:06:34.360Z,17.00
2019-04-21T23:09:11.059Z,16.95
2019-04-21T23:11:49.187Z,16.67
2019-04-21T23:14:21.570Z,17.05
2019-04-21T23:17:14.935Z,16.48
2019-04-21T23:19:46.043Z,16.00
2019-04-21T23:22:31.276Z,17.60
2019-04-21T23:25:09.441Z,16.17
2019-04-21T23:27:38.744Z,16.80
2019-04-21T23:30:25.833Z,17.37
2019-04-21T23:32:47.880Z,17.70
2019-04-21T23:35:19.637Z,17.62
2019-04-21T23:37:55.694Z,17.15
2019-04-21T23:40:27.848Z,16.57
2019-04-21T23:43:09.699Z,16.65
2019-04-21T23:45:40.900Z,17.23
2019-04-21T23:48:27.137Z,17.50
2019-04-21T23:50:55.089Z,17.85
2019-04-21T23:53:23.981Z,17.60
2019-04-21T23:55:59.212Z,17.48
2019-04-21T23:58:36.250Z,17.92
